createdAt,value
2022-08-17T00:01:52.004Z,64.57
2022-08-17T00:04:21.090Z,64.70
2022-08-17T00:06:49.540Z,64.96
2022-08-17T00:09:19.026Z,64.81
2022-08-17T00:12:41.652Z,64.62
2022-08-17T00:14:36.171Z,64.15
2022-08-17T00:17:04.680Z,63.92
2022-08-17T00:19:32.727Z,63.83
2022-08-17T00:22:33.972Z,63.80
2022-08-17T00:24:50.276Z,64.01
2022-08-17T00:27:18.001Z,63.66
2022-08-17T00:29:46.024Z,64.00
2022-08-17T00:33:11.986Z,64.24
2022-08-17T00:35:06.380Z,63.61
2022-08-17T00:37:32.986Z,63.61
2022-08-17T00:39:59.671Z,63.94
2022-08-17T00:42:30.831Z,63.77
2022-08-17T00:44:58.160Z,64.31
2022-08-17T00:47:24.790Z,64.62
2022-08-17T00:49:51.844Z,64.54
2022-08-17T00:52:23.168Z,64.64
2022-08-17T00:54:54.036Z,64.83
2022-08-17T00:57:33.005Z,64.82
2022-08-17T01:00:09.711Z,64.97
2022-08-17T01:02:51.486Z,64.65
2022-08-17T01:05:23.563Z,64.68
2022-08-17T01:07:52.755Z,64.31
2022-08-17T01:10:57.142Z,64.75
2022-08-17T01:13:16.970Z,64.54
2022-08-17T01:15:55.480Z,64.73
2022-08-17T01:18:22.157Z,64.80
2022-08-17T01:20:53.190Z,64.92
2022-08-17T01:23:23.656Z,65.14
2022-08-17T01:25:52.242Z,65.26
2022-08-17T01:28:36.413Z,65.30
2022-08-17T01:31:08.414Z,65.30
2022-08-17T01:33:35.595Z,65.38
2022-08-17T01:36:04.078Z,65.37
2022-08-17T01:38:32.012Z,65.49
2022-08-17T01:41:03.252Z,65.58
2022-08-17T01:43:43.497Z,65.65
2022-08-17T01:46:17.145Z,65.81
2022-08-17T01:48:47.420Z,65.71
2022-08-17T01:51:15.635Z,65.72
2022-08-17T01:53:47.585Z,66.20
2022-08-17T01:56:17.301Z,66.29
2022-08-17T01:58:44.061Z,66.33
2022-08-17T02:01:14.197Z,66.38
2022-08-17T02:03:41.971Z,66.54
2022-08-17T02:06:27.714Z,66.83
2022-08-17T02:09:01.801Z,66.95
2022-08-17T02:11:32.449Z,67.10
2022-08-17T02:14:03.251Z,67.30
2022-08-17T02:16:36.917Z,67.58
2022-08-17T02:19:07.562Z,67.71
2022-08-17T02:21:34.733Z,67.95
2022-08-17T02:24:01.771Z,67.96
2022-08-17T02:26:28.419Z,68.38
2022-08-17T02:28:55.174Z,68.43
2022-08-17T02:31:21.864Z,68.49
2022-08-17T02:34:00.443Z,68.66
2022-08-17T02:36:32.993Z,68.69
2022-08-17T02:39:01.601Z,68.45
2022-08-17T02:41:28.320Z,68.80
2022-08-17T02:43:54.980Z,69.13
2022-08-17T02:46:22.624Z,69.06
2022-08-17T02:48:49.267Z,68.99
2022-08-17T02:51:15.922Z,68.81
2022-08-17T02:53:42.487Z,69.11
2022-08-17T02:56:09.072Z,68.86
2022-08-17T02:58:36.264Z,69.22
2022-08-17T03:01:06.106Z,69.02
2022-08-17T03:03:32.812Z,69.18
2022-08-17T03:05:59.398Z,69.18
2022-08-17T03:08:26.036Z,69.39
2022-08-17T03:10:52.878Z,69.59
2022-08-17T03:13:20.170Z,70.03
2022-08-17T03:15:47.713Z,69.80
2022-08-17T03:18:24.447Z,69.82
2022-08-17T03:20:54.487Z,69.84
2022-08-17T03:23:24.450Z,69.85
2022-08-17T03:25:53.946Z,70.14
2022-08-17T03:28:22.612Z,70.03
2022-08-17T03:30:53.394Z,69.99
2022-08-17T03:33:20.320Z,70.14
2022-08-17T03:35:47.186Z,70.11
2022-08-17T03:38:17.589Z,70.22
2022-08-17T03:40:57.432Z,70.25
2022-08-17T03:43:28.244Z,70.13
2022-08-17T03:46:28.636Z,70.03
2022-08-17T03:49:18.486Z,70.73
2022-08-17T03:52:03.796Z,70.16
2022-08-17T03:54:52.104Z,70.38
2022-08-17T03:57:19.281Z,70.60
2022-08-17T03:59:45.992Z,70.41
2022-08-17T04:02:25.550Z,69.91
2022-08-17T04:04:57.860Z,70.10
2022-08-17T04:07:28.681Z,69.54
2022-08-17T04:09:55.689Z,70.05
2022-08-17T04:12:24.122Z,70.25
2022-08-17T04:14:52.586Z,69.96
2022-08-17T04:17:22.907Z,69.54
2022-08-17T04:19:49.590Z,69.80
2022-08-17T04:22:33.235Z,69.43
2022-08-17T04:25:20.808Z,69.23
2022-08-17T04:27:48.858Z,68.94
2022-08-17T04:30:17.741Z,68.88
2022-08-17T04:33:06.389Z,68.68
2022-08-17T04:35:43.077Z,68.81
2022-08-17T04:38:13.119Z,68.87
2022-08-17T04:40:58.621Z,68.85
2022-08-17T04:43:27.109Z,68.27
2022-08-17T04:46:00.498Z,67.94
2022-08-17T04:48:35.410Z,67.92
2022-08-17T04:51:24.469Z,68.29
2022-08-17T04:53:57.833Z,68.58
2022-08-17T04:56:26.332Z,68.88
2022-08-17T04:58:55.959Z,68.91
2022-08-17T05:01:24.809Z,69.15
2022-08-17T05:03:56.378Z,69.41
2022-08-17T05:06:23.288Z,69.26
2022-08-17T05:08:49.871Z,69.21
2022-08-17T05:11:16.693Z,68.98
2022-08-17T05:13:43.619Z,68.81
2022-08-17T05:16:10.493Z,68.91
2022-08-17T05:18:39.938Z,68.49
2022-08-17T05:21:07.269Z,67.72
2022-08-17T05:23:42.753Z,67.80
2022-08-17T05:26:19.834Z,67.35
2022-08-17T05:28:53.649Z,66.35
2022-08-17T05:31:20.988Z,66.34
2022-08-17T05:33:47.740Z,66.30
2022-08-17T05:36:43.287Z,66.57
2022-08-17T05:39:02.497Z,65.94
2022-08-17T05:41:29.075Z,65.85
2022-08-17T05:43:56.530Z,66.02
2022-08-17T05:46:35.670Z,65.57
2022-08-17T05:49:08.044Z,65.78
2022-08-17T05:51:57.013Z,65.63
2022-08-17T05:54:29.619Z,65.52
2022-08-17T05:57:18.085Z,66.01
2022-08-17T06:00:01.035Z,65.70
2022-08-17T06:02:47.862Z,65.64
2022-08-17T06:05:27.646Z,65.51
2022-08-17T06:08:07.553Z,65.71
2022-08-17T06:10:53.370Z,65.82
2022-08-17T06:13:32.107Z,65.55
2022-08-17T06:16:17.796Z,64.64
2022-08-17T06:19:15.989Z,63.41
2022-08-17T06:21:47.829Z,62.71
2022-08-17T06:24:29.104Z,61.87
2022-08-17T06:27:06.317Z,61.50
2022-08-17T06:33:40.539Z,62.39
2022-08-17T06:36:29.446Z,63.23
2022-08-17T06:39:01.849Z,62.36
2022-08-17T06:42:00.437Z,62.04
2022-08-17T06:44:51.024Z,61.90
2022-08-17T06:47:47.642Z,61.13
2022-08-17T06:50:24.172Z,60.54
2022-08-17T06:53:03.756Z,60.33
2022-08-17T06:55:38.248Z,59.92
2022-08-17T06:58:15.664Z,59.33
2022-08-17T07:00:47.189Z,59.48
2022-08-17T07:03:28.203Z,59.56
2022-08-17T07:06:00.981Z,59.93
2022-08-17T07:08:44.695Z,59.93
2022-08-17T07:11:16.379Z,59.67
2022-08-17T07:13:51.338Z,59.71
2022-08-17T07:16:30.576Z,60.05
2022-08-17T07:18:59.685Z,59.80
2022-08-17T07:21:38.742Z,60.59
2022-08-17T07:24:29.170Z,59.84
2022-08-17T07:27:17.211Z,60.40
2022-08-17T07:30:03.782Z,60.49
2022-08-17T07:33:01.069Z,60.52
2022-08-17T07:35:37.528Z,60.57
2022-08-17T07:38:25.506Z,60.78
2022-08-17T07:40:57.870Z,61.03
2022-08-17T07:43:42.937Z,61.36
2022-08-17T07:46:43.009Z,61.99
2022-08-17T07:49:09.568Z,61.15
2022-08-17T07:51:45.773Z,60.89
2022-08-17T07:54:15.268Z,60.96
2022-08-17T07:56:41.870Z,61.39
2022-08-17T07:59:12.897Z,61.36
2022-08-17T08:01:44.326Z,61.49
2022-08-17T08:04:43.206Z,61.35
2022-08-17T08:07:21.626Z,61.36
2022-08-17T08:10:11.374Z,61.63
2022-08-17T08:12:43.424Z,61.73
2022-08-17T08:15:19.097Z,60.92
2022-08-17T08:18:04.299Z,61.54
2022-08-17T08:20:53.072Z,61.69
2022-08-17T08:23:25.688Z,62.10
2022-08-17T08:26:07.322Z,62.40
2022-08-17T08:29:00.918Z,63.15
2022-08-17T08:31:42.063Z,63.14
2022-08-17T08:34:58.907Z,63.01
2022-08-17T08:37:20.616Z,63.60
2022-08-17T08:40:15.115Z,63.80
2022-08-17T08:42:52.867Z,63.81
2022-08-17T08:45:24.305Z,63.95
2022-08-17T08:47:53.959Z,64.36
2022-08-17T08:50:38.108Z,64.53
2022-08-17T08:53:11.067Z,64.04
2022-08-17T08:55:56.116Z,64.23
2022-08-17T08:58:43.635Z,64.46
2022-08-17T09:01:20.983Z,64.29
2022-08-17T09:04:25.538Z,64.39
2022-08-17T09:06:57.990Z,64.35
2022-08-17T09:10:03.666Z,64.52
2022-08-17T09:12:35.741Z,64.23
2022-08-17T09:15:25.681Z,64.34
2022-08-17T09:19:01.293Z,64.73
2022-08-17T09:21:01.015Z,65.21
2022-08-17T09:23:33.098Z,65.11
2022-08-17T09:26:37.057Z,64.90
2022-08-17T09:29:11.712Z,64.50
2022-08-17T09:31:57.377Z,64.63
2022-08-17T09:34:52.735Z,64.31
2022-08-17T09:37:30.848Z,64.63
2022-08-17T09:40:14.009Z,64.70
2022-08-17T09:42:55.688Z,65.11
2022-08-17T09:45:28.388Z,65.01
2022-08-17T09:48:22.911Z,64.91
2022-08-17T09:51:22.794Z,65.02
2022-08-17T09:53:50.877Z,64.96
2022-08-17T09:56:47.055Z,65.41
2022-08-17T09:59:38.709Z,65.71
2022-08-17T10:02:31.254Z,65.68
2022-08-17T10:05:09.878Z,65.87
2022-08-17T10:07:56.089Z,66.12
2022-08-17T10:10:56.865Z,66.43
2022-08-17T10:13:41.297Z,66.85
2022-08-17T10:16:43.946Z,67.29
2022-08-17T10:19:20.026Z,67.59
2022-08-17T10:22:32.473Z,67.22
2022-08-17T10:25:23.459Z,67.63
2022-08-17T10:27:57.844Z,67.82
2022-08-17T10:30:27.484Z,67.49
2022-08-17T10:33:01.969Z,67.36
2022-08-17T10:35:40.550Z,67.13
2022-08-17T10:38:33.589Z,67.34
2022-08-17T10:41:18.965Z,66.91
2022-08-17T10:44:38.414Z,66.65
2022-08-17T10:47:05.964Z,66.14
2022-08-17T10:49:35.896Z,65.84
2022-08-17T10:52:20.984Z,66.32
2022-08-17T10:54:47.631Z,66.55
2022-08-17T10:57:29.459Z,66.48
2022-08-17T10:59:58.827Z,65.93
2022-08-17T11:02:28.040Z,66.29
2022-08-17T11:05:06.417Z,65.84
2022-08-17T11:07:33.055Z,64.16
2022-08-17T11:10:21.543Z,62.06
2022-08-17T11:13:28.118Z,61.54
2022-08-17T11:16:03.566Z,60.77
2022-08-17T11:18:43.477Z,59.91
2022-08-17T11:21:35.001Z,58.09
2022-08-17T11:24:19.261Z,57.50
2022-08-17T11:27:12.129Z,59.54
2022-08-17T11:29:58.137Z,61.20
2022-08-17T11:32:34.047Z,61.80
2022-08-17T11:35:22.041Z,62.56
2022-08-17T11:38:28.425Z,62.34
2022-08-17T11:40:58.092Z,61.59
2022-08-17T11:43:49.883Z,58.15
2022-08-17T11:46:55.353Z,59.15
2022-08-17T11:49:55.543Z,60.34
2022-08-17T11:52:39.789Z,59.68
2022-08-17T11:55:33.989Z,60.40
2022-08-17T11:58:29.731Z,60.17
2022-08-17T12:00:59.805Z,61.37
2022-08-17T12:03:55.231Z,61.66
2022-08-17T12:06:41.259Z,62.22
2022-08-17T12:09:16.204Z,59.30
2022-08-17T12:12:12.445Z,57.36
2022-08-17T12:17:41.818Z,57.01
2022-08-17T12:20:35.653Z,57.31
2022-08-17T12:23:11.297Z,56.77
2022-08-17T12:25:43.676Z,56.50
2022-08-17T12:28:31.443Z,55.73
2022-08-17T12:31:08.567Z,56.64
2022-08-17T12:33:40.365Z,57.65
2022-08-17T12:36:08.972Z,57.52
2022-08-17T12:38:37.854Z,56.82
2022-08-17T12:41:26.299Z,55.73
2022-08-17T12:44:05.704Z,56.71
2022-08-17T12:46:45.070Z,56.28
2022-08-17T12:49:28.193Z,55.73
2022-08-17T12:52:03.006Z,56.48
2022-08-17T12:54:39.180Z,57.09
2022-08-17T12:57:13.558Z,53.87
2022-08-17T12:59:43.536Z,54.41
2022-08-17T13:02:28.380Z,54.69
2022-08-17T13:04:57.441Z,54.74
2022-08-17T13:07:35.523Z,57.74
2022-08-17T13:10:02.668Z,57.47
2022-08-17T13:12:35.888Z,57.43
2022-08-17T13:15:03.148Z,59.30
2022-08-17T13:17:36.098Z,58.54
2022-08-17T13:20:06.179Z,57.87
2022-08-17T13:22:32.841Z,57.34
2022-08-17T13:25:09.168Z,55.51
2022-08-17T13:27:35.844Z,56.76
2022-08-17T13:30:08.233Z,56.51
2022-08-17T13:32:43.937Z,55.16
2022-08-17T13:35:39.502Z,54.54
2022-08-17T13:38:16.547Z,56.08
2022-08-17T13:40:52.779Z,57.84
2022-08-17T13:43:58.120Z,60.46
2022-08-17T13:46:31.210Z,60.75
2022-08-17T13:49:04.134Z,62.14
2022-08-17T13:51:45.961Z,63.06
2022-08-17T13:54:24.612Z,63.85
2022-08-17T13:56:57.816Z,61.48
2022-08-17T13:59:38.222Z,59.31
2022-08-17T14:02:15.436Z,57.64
2022-08-17T14:04:43.285Z,57.96
2022-08-17T14:07:11.603Z,57.14
2022-08-17T14:09:43.631Z,58.91
2022-08-17T14:12:12.771Z,60.64
2022-08-17T14:14:40.807Z,57.67
2022-08-17T14:17:07.980Z,55.76
2022-08-17T14:19:35.644Z,55.99
2022-08-17T14:22:03.423Z,57.89
2022-08-17T14:24:33.389Z,57.67
2022-08-17T14:27:01.374Z,58.43
2022-08-17T14:29:30.085Z,59.50
2022-08-17T14:31:58.403Z,61.11
2022-08-17T14:34:25.806Z,62.13
2022-08-17T14:36:52.902Z,61.80
2022-08-17T14:39:20.129Z,63.12
2022-08-17T14:41:46.692Z,62.10
2022-08-17T14:44:13.526Z,61.90
2022-08-17T14:46:41.600Z,61.85
2022-08-17T14:49:11.696Z,60.42
2022-08-17T14:51:43.550Z,58.19
2022-08-17T14:54:33.610Z,58.69
2022-08-17T14:57:22.877Z,59.77
2022-08-17T14:59:47.005Z,58.99
2022-08-17T15:02:13.582Z,61.32
2022-08-17T15:04:45.425Z,61.80
2022-08-17T15:07:12.456Z,62.72
2022-08-17T15:09:39.246Z,61.84
2022-08-17T15:12:06.697Z,61.38
2022-08-17T15:14:35.478Z,62.05
2022-08-17T15:17:05.715Z,61.84
2022-08-17T15:19:32.593Z,63.08
2022-08-17T15:21:59.237Z,62.96
2022-08-17T15:24:25.807Z,61.83
2022-08-17T15:26:52.344Z,62.26
2022-08-17T15:29:18.915Z,63.01
2022-08-17T15:31:45.537Z,62.03
2022-08-17T15:34:12.076Z,60.69
2022-08-17T15:36:38.884Z,61.22
2022-08-17T15:39:12.307Z,59.97
2022-08-17T15:41:38.890Z,59.91
2022-08-17T15:44:05.507Z,60.41
2022-08-17T15:46:32.113Z,59.64
2022-08-17T15:49:02.105Z,61.69
2022-08-17T15:51:34.426Z,60.81
2022-08-17T15:54:18.694Z,59.90
2022-08-17T15:56:48.876Z,60.18
2022-08-17T15:59:15.677Z,60.25
2022-08-17T16:03:14.773Z,59.58
2022-08-17T16:04:30.988Z,58.43
2022-08-17T16:06:59.713Z,58.17
2022-08-17T16:09:26.206Z,56.89
2022-08-17T16:11:55.240Z,56.72
2022-08-17T16:14:24.167Z,57.30
2022-08-17T16:16:51.017Z,57.17
2022-08-17T16:19:17.731Z,57.28
2022-08-17T16:21:44.305Z,58.89
2022-08-17T16:24:13.175Z,57.78
2022-08-17T16:26:40.502Z,58.44
2022-08-17T16:29:07.258Z,58.78
2022-08-17T16:31:34.286Z,58.11
2022-08-17T16:34:15.940Z,58.41
2022-08-17T16:36:53.748Z,58.90
2022-08-17T16:39:23.310Z,58.65
2022-08-17T16:41:50.426Z,59.96
2022-08-17T16:44:18.405Z,61.16
2022-08-17T16:46:46.968Z,61.33
2022-08-17T16:49:36.217Z,60.82
2022-08-17T16:52:03.033Z,59.77
2022-08-17T16:54:29.963Z,59.27
2022-08-17T16:56:56.720Z,59.33
2022-08-17T16:59:30.415Z,59.91
2022-08-17T17:02:05.015Z,59.92
2022-08-17T17:04:35.298Z,59.75
2022-08-17T17:07:37.244Z,59.08
2022-08-17T17:10:20.223Z,59.58
2022-08-17T17:13:03.725Z,58.83
2022-08-17T17:16:14.723Z,59.53
2022-08-17T17:19:13.948Z,59.57
2022-08-17T17:21:59.522Z,60.71
2022-08-17T17:24:56.585Z,60.94
2022-08-17T17:27:37.699Z,61.68
2022-08-17T17:30:24.481Z,61.83
2022-08-17T17:33:09.402Z,60.96
2022-08-17T17:35:49.960Z,61.09
2022-08-17T17:38:48.406Z,61.17
2022-08-17T17:41:42.775Z,61.85
2022-08-17T17:44:13.239Z,62.22
2022-08-17T17:46:50.377Z,62.49
2022-08-17T17:49:18.266Z,63.05
2022-08-17T17:52:09.981Z,62.59
2022-08-17T17:58:55.859Z,61.73
2022-08-17T18:01:56.776Z,62.90
2022-08-17T18:04:37.594Z,63.51
2022-08-17T18:07:18.011Z,63.96
2022-08-17T18:09:51.993Z,63.63
2022-08-17T18:12:40.713Z,63.96
2022-08-17T18:15:24.107Z,63.59
2022-08-17T18:18:31.187Z,63.13
2022-08-17T18:21:07.756Z,62.97
2022-08-17T18:23:34.680Z,63.25
2022-08-17T18:26:02.221Z,63.61
2022-08-17T18:28:41.109Z,63.92
2022-08-17T18:31:21.498Z,64.03
2022-08-17T18:33:54.390Z,64.34
2022-08-17T18:36:33.730Z,64.76
2022-08-17T18:39:26.490Z,65.20
2022-08-17T18:41:56.637Z,65.33
2022-08-17T18:44:35.439Z,65.95
2022-08-17T18:47:13.828Z,66.60
2022-08-17T18:49:49.063Z,66.86
2022-08-17T18:52:21.777Z,67.47
2022-08-17T18:55:09.049Z,67.20
2022-08-17T18:57:43.702Z,67.67
2022-08-17T19:00:33.349Z,67.55
2022-08-17T19:03:02.521Z,67.94
2022-08-17T19:05:33.234Z,67.87
2022-08-17T19:08:29.910Z,68.25
2022-08-17T19:11:07.401Z,68.36
2022-08-17T19:13:50.751Z,68.52
2022-08-17T19:16:29.718Z,68.67
2022-08-17T19:19:07.776Z,68.47
2022-08-17T19:21:40.319Z,68.55
2022-08-17T19:24:22.206Z,68.81
2022-08-17T19:27:06.230Z,69.16
2022-08-17T19:29:41.487Z,69.30
2022-08-17T19:32:09.557Z,69.36
2022-08-17T19:34:37.651Z,69.32
2022-08-17T19:37:23.916Z,69.29
2022-08-17T19:39:53.541Z,69.53
2022-08-17T19:42:47.719Z,69.77
2022-08-17T19:45:18.198Z,69.94
2022-08-17T19:48:03.061Z,69.98
2022-08-17T19:50:56.539Z,70.43
2022-08-17T19:54:07.127Z,70.14
2022-08-17T19:56:55.821Z,70.24
2022-08-17T19:59:48.329Z,70.47
2022-08-17T20:02:32.752Z,70.86
2022-08-17T20:05:05.016Z,70.85
2022-08-17T20:07:51.931Z,71.08
2022-08-17T20:10:54.922Z,70.87
2022-08-17T20:13:39.193Z,71.02
2022-08-17T20:16:06.564Z,71.05
2022-08-17T20:18:59.335Z,71.09
2022-08-17T20:21:35.167Z,71.19
2022-08-17T20:24:28.721Z,71.29
2022-08-17T20:26:59.639Z,71.43
2022-08-17T20:29:39.715Z,71.90
2022-08-17T20:32:47.756Z,71.88
2022-08-17T20:35:30.513Z,72.03
2022-08-17T20:38:11.068Z,72.17
2022-08-17T20:41:10.133Z,72.50
2022-08-17T20:43:37.271Z,72.52
2022-08-17T20:46:22.099Z,72.54
2022-08-17T20:48:53.558Z,72.99
2022-08-17T20:51:27.242Z,73.49
2022-08-17T20:53:53.790Z,73.05
2022-08-17T20:56:42.416Z,73.25
2022-08-17T20:59:31.603Z,73.34
2022-08-17T21:02:17.615Z,73.91
2022-08-17T21:04:51.369Z,74.19
2022-08-17T21:07:47.036Z,74.15
2022-08-17T21:10:25.764Z,74.36
2022-08-17T21:13:08.255Z,74.39
2022-08-17T21:15:50.392Z,74.38
2022-08-17T21:18:45.709Z,74.55
2022-08-17T21:21:18.431Z,74.90
2022-08-17T21:24:12.922Z,75.40
2022-08-17T21:27:14.063Z,76.04
2022-08-17T21:30:16.785Z,75.78
2022-08-17T21:33:16.736Z,76.13
2022-08-17T21:35:47.340Z,75.77
2022-08-17T21:38:16.123Z,75.61
2022-08-17T21:40:50.121Z,75.40
2022-08-17T21:43:29.369Z,76.19
2022-08-17T21:46:00.831Z,76.39
2022-08-17T21:48:29.288Z,76.33
2022-08-17T21:51:28.230Z,76.57
2022-08-17T21:53:58.112Z,76.56
2022-08-17T21:56:33.684Z,76.95
2022-08-17T21:59:07.610Z,76.80
2022-08-17T22:01:37.741Z,77.32
2022-08-17T22:04:11.425Z,77.25
2022-08-17T22:06:56.470Z,77.12
2022-08-17T22:09:41.486Z,77.12
2022-08-17T22:12:16.600Z,77.55
2022-08-17T22:14:57.887Z,77.87
2022-08-17T22:17:36.995Z,77.78
2022-08-17T22:20:15.020Z,77.80
2022-08-17T22:23:20.292Z,77.95
2022-08-17T22:26:09.584Z,78.63
2022-08-17T22:28:43.104Z,78.80
2022-08-17T22:31:14.550Z,79.14
2022-08-17T22:33:41.244Z,79.22
2022-08-17T22:36:09.114Z,79.06
2022-08-17T22:38:37.715Z,79.40
2022-08-17T22:41:23.308Z,80.05
2022-08-17T22:43:50.701Z,79.57
2022-08-17T22:46:22.289Z,80.30
2022-08-17T22:48:54.828Z,80.94
2022-08-17T22:51:24.336Z,81.62
2022-08-17T22:54:17.317Z,81.66
2022-08-17T22:57:18.876Z,81.92
2022-08-17T22:59:47.714Z,82.18
2022-08-17T23:02:23.913Z,82.14
2022-08-17T23:04:54.750Z,81.78
2022-08-17T23:07:21.708Z,81.65
2022-08-17T23:09:48.386Z,82.10
2022-08-17T23:12:20.829Z,82.01
2022-08-17T23:14:51.338Z,82.22
2022-08-17T23:17:18.175Z,82.32
2022-08-17T23:19:45.127Z,82.03
2022-08-17T23:22:11.994Z,82.38
2022-08-17T23:24:43.919Z,82.19
2022-08-17T23:27:11.739Z,82.70
2022-08-17T23:29:41.391Z,82.44
2022-08-17T23:32:11.737Z,83.02
2022-08-17T23:34:39.850Z,83.03
2022-08-17T23:37:07.674Z,83.07
2022-08-17T23:39:34.765Z,83.70
2022-08-17T23:42:05.387Z,83.78
2022-08-17T23:44:32.943Z,83.59
2022-08-17T23:46:59.455Z,83.61
2022-08-17T23:49:26.182Z,83.66
2022-08-17T23:51:54.847Z,83.89
2022-08-17T23:54:29.454Z,83.87
2022-08-17T23:56:56.363Z,85.02
